createdAt,value
2018-04-06T00:00:07.550Z,2.5
2018-04-06T00:01:09.150Z,2.6
2018-04-06T00:02:10.975Z,2.6
2018-04-06T00:03:12.580Z,2.5
2018-04-06T00:04:14.388Z,2.5
2018-04-06T00:05:16.143Z,2.5
2018-04-06T00:06:17.752Z,2.6
2018-04-06T00:07:19.951Z,2.5
2018-04-06T00:08:21.611Z,2.5
2018-04-06T00:09:23.437Z,2.5
2018-04-06T00:10:24.926Z,2.5
2018-04-06T00:11:27.924Z,2.5
2018-04-06T00:12:29.902Z,2.5
2018-04-06T00:13:32.215Z,2.5
2018-04-06T00:14:34.149Z,2.5
2018-04-06T00:15:35.750Z,2.5
2018-04-06T00:16:37.824Z,2.5
2018-04-06T00:17:39.960Z,2.5
2018-04-06T00:18:41.834Z,2.5
2018-04-06T00:19:43.654Z,2.6
2018-04-06T00:20:45.391Z,2.5
2018-04-06T00:21:47.286Z,2.5
2018-04-06T00:22:49.308Z,2.4
2018-04-06T00:23:51.021Z,2.4
2018-04-06T00:24:52.928Z,2.4
2018-04-06T00:25:54.544Z,2.4
2018-04-06T00:26:56.819Z,2.5
2018-04-06T00:27:58.432Z,2.5
2018-04-06T00:29:00.139Z,2.5
2018-04-06T00:30:01.910Z,2.4
2018-04-06T00:31:03.518Z,2.4
2018-04-06T00:32:05.121Z,2.3
2018-04-06T00:33:06.761Z,2.4
2018-04-06T00:34:08.684Z,2.3
2018-04-06T00:35:10.307Z,2.3
2018-04-06T00:36:11.908Z,2.3
2018-04-06T00:37:13.512Z,2.4
2018-04-06T00:38:15.119Z,2.2
2018-04-06T00:39:16.726Z,2.4
2018-04-06T00:40:18.332Z,2.2
2018-04-06T00:41:19.932Z,2.3
2018-04-06T00:42:22.331Z,2.2
2018-04-06T00:43:23.935Z,2.2
2018-04-06T00:44:25.577Z,2.4
2018-04-06T00:45:27.148Z,2.3
2018-04-06T00:46:28.754Z,2.4
2018-04-06T00:47:30.356Z,2.4
2018-04-06T00:48:31.959Z,2.3
2018-04-06T00:49:33.563Z,2.4
2018-04-06T00:50:35.170Z,2.3
2018-04-06T00:51:36.771Z,2.3
2018-04-06T00:52:38.376Z,2.5
2018-04-06T00:53:39.977Z,2.3
2018-04-06T00:54:41.585Z,2.4
2018-04-06T00:55:43.192Z,2.6
2018-04-06T00:56:44.796Z,2.4
2018-04-06T00:57:46.403Z,2.4
2018-04-06T00:58:48.003Z,2.3
2018-04-06T00:59:49.605Z,2.5
2018-04-06T01:00:51.213Z,2.4
2018-04-06T01:01:52.812Z,2.4
2018-04-06T01:02:54.415Z,2.5
2018-04-06T01:03:56.018Z,2.5
2018-04-06T01:04:57.625Z,2.6
2018-04-06T01:05:59.223Z,2.5
2018-04-06T01:07:00.831Z,2.5
2018-04-06T01:08:02.434Z,2.4
2018-04-06T01:09:04.037Z,2.5
2018-04-06T01:10:05.644Z,2.3
2018-04-06T01:11:07.255Z,2.2
2018-04-06T01:12:08.851Z,2.4
2018-04-06T01:13:10.458Z,2.4
2018-04-06T01:14:12.064Z,2.2
2018-04-06T01:15:13.664Z,2.2
2018-04-06T01:16:15.274Z,2.2
2018-04-06T01:17:16.875Z,2.3
2018-04-06T01:18:18.483Z,2.2
2018-04-06T01:19:20.087Z,2.1
2018-04-06T01:20:21.690Z,2.2
2018-04-06T01:21:23.292Z,2.2
2018-04-06T01:22:24.900Z,2.2
2018-04-06T01:23:26.504Z,2.1
2018-04-06T01:24:28.112Z,2.2
2018-04-06T01:25:29.721Z,2.2
2018-04-06T01:26:31.318Z,2.2
2018-04-06T01:27:32.928Z,2.2
2018-04-06T01:28:34.526Z,2.1
2018-04-06T01:29:36.135Z,2.2
2018-04-06T01:30:37.741Z,2.2
2018-04-06T01:31:39.341Z,2.3
2018-04-06T01:32:40.951Z,2.2
2018-04-06T01:33:42.550Z,2.2
2018-04-06T01:34:44.151Z,2.1
2018-04-06T01:35:45.753Z,2.1
2018-04-06T01:36:47.355Z,2.2
2018-04-06T01:37:48.957Z,2.1
2018-04-06T01:38:50.557Z,2.1
2018-04-06T01:39:52.166Z,2.1
2018-04-06T01:40:53.766Z,2.0
2018-04-06T01:41:55.373Z,2.2
2018-04-06T01:42:56.973Z,2.1
2018-04-06T01:43:58.579Z,2.1
2018-04-06T01:45:00.183Z,2.0
2018-04-06T01:46:01.786Z,2.0
2018-04-06T01:47:03.395Z,2.1
2018-04-06T01:48:04.993Z,2.1
2018-04-06T01:49:06.602Z,2.0
2018-04-06T01:50:08.204Z,2.0
2018-04-06T01:51:09.804Z,2.0
2018-04-06T01:52:11.410Z,2.0
2018-04-06T01:53:13.014Z,2.0
2018-04-06T01:54:14.627Z,1.9
2018-04-06T01:55:16.225Z,1.9
2018-04-06T01:56:17.830Z,1.9
2018-04-06T01:57:19.444Z,1.9
2018-04-06T01:58:21.042Z,2.0
2018-04-06T01:59:22.645Z,2.0
2018-04-06T02:00:24.251Z,1.9
2018-04-06T02:01:25.853Z,1.8
2018-04-06T02:02:27.455Z,1.8
2018-04-06T02:03:29.061Z,1.9
2018-04-06T02:04:30.662Z,1.9
2018-04-06T02:05:32.264Z,1.9
2018-04-06T02:06:33.874Z,1.9
2018-04-06T02:07:35.474Z,1.8
2018-04-06T02:08:37.080Z,1.8
2018-04-06T02:09:38.687Z,1.8
2018-04-06T02:10:40.284Z,1.8
2018-04-06T02:11:41.893Z,1.8
2018-04-06T02:12:43.493Z,1.7
2018-04-06T02:13:45.095Z,1.9
2018-04-06T02:14:46.705Z,1.8
2018-04-06T02:15:48.307Z,1.7
2018-04-06T02:16:49.911Z,1.7
2018-04-06T02:17:51.511Z,1.7
2018-04-06T02:18:53.113Z,1.6
2018-04-06T02:19:54.717Z,1.6
2018-04-06T02:20:56.319Z,1.6
2018-04-06T02:21:57.926Z,1.6
2018-04-06T02:22:59.535Z,1.6
2018-04-06T02:24:01.136Z,1.7
2018-04-06T02:25:02.739Z,1.7
2018-04-06T02:26:04.341Z,1.6
2018-04-06T02:27:05.948Z,1.6
2018-04-06T02:28:07.550Z,1.6
2018-04-06T02:29:09.158Z,1.6
2018-04-06T02:30:10.767Z,1.5
2018-04-06T02:31:12.366Z,1.6
2018-04-06T02:32:13.973Z,1.5
2018-04-06T02:33:15.574Z,1.6
2018-04-06T02:34:17.181Z,1.6
2018-04-06T02:35:18.787Z,1.5
2018-04-06T02:36:20.390Z,1.6
2018-04-06T02:37:22.001Z,1.5
2018-04-06T02:38:23.608Z,1.5
2018-04-06T02:39:25.264Z,1.5
2018-04-06T02:40:26.837Z,1.5
2018-04-06T02:41:28.416Z,1.5
2018-04-06T02:42:30.987Z,1.5
2018-04-06T02:43:32.593Z,1.5
2018-04-06T02:44:34.206Z,1.4
2018-04-06T02:45:35.811Z,1.4
2018-04-06T02:46:37.410Z,1.4
2018-04-06T02:47:39.014Z,1.5
2018-04-06T02:48:40.617Z,1.5
2018-04-06T02:49:42.218Z,1.5
2018-04-06T02:50:43.819Z,1.4
2018-04-06T02:51:45.424Z,1.5
2018-04-06T02:52:47.573Z,1.4
2018-04-06T02:53:49.181Z,1.4
2018-04-06T02:54:50.777Z,1.5
2018-04-06T02:55:52.394Z,1.5
2018-04-06T02:56:53.991Z,1.5
2018-04-06T02:57:55.595Z,1.4
2018-04-06T02:58:57.193Z,1.4
2018-04-06T02:59:58.802Z,1.2
2018-04-06T03:01:00.404Z,1.5
2018-04-06T03:02:02.009Z,1.4
2018-04-06T03:03:03.695Z,1.4
2018-04-06T03:04:05.317Z,1.3
2018-04-06T03:05:06.932Z,1.4
2018-04-06T03:06:08.538Z,1.4
2018-04-06T03:07:10.135Z,1.5
2018-04-06T03:08:11.739Z,1.4
2018-04-06T03:09:13.338Z,1.3
2018-04-06T03:10:14.952Z,1.3
2018-04-06T03:11:16.556Z,1.4
2018-04-06T03:12:18.166Z,1.4
2018-04-06T03:13:19.767Z,1.3
2018-04-06T03:14:21.374Z,1.3
2018-04-06T03:15:22.977Z,1.5
2018-04-06T03:16:24.576Z,1.3
2018-04-06T03:17:26.185Z,1.2
2018-04-06T03:18:27.786Z,1.3
2018-04-06T03:19:29.390Z,1.3
2018-04-06T03:20:30.999Z,1.3
2018-04-06T03:21:32.597Z,1.2
2018-04-06T03:22:34.200Z,1.2
2018-04-06T03:23:35.808Z,1.3
2018-04-06T03:24:37.412Z,1.3
2018-04-06T03:25:39.020Z,1.2
2018-04-06T03:26:40.621Z,1.3
2018-04-06T03:27:42.229Z,1.1
2018-04-06T03:28:43.828Z,1.3
2018-04-06T03:29:45.437Z,1.1
2018-04-06T03:30:47.036Z,1.1
2018-04-06T03:31:48.640Z,1.2
2018-04-06T03:32:50.247Z,1.1
2018-04-06T03:33:51.845Z,1.1
2018-04-06T03:34:53.456Z,1.1
2018-04-06T03:35:55.057Z,1.1
2018-04-06T03:36:56.657Z,1.1
2018-04-06T03:37:58.266Z,1.1
2018-04-06T03:38:59.868Z,1.1
2018-04-06T03:40:01.468Z,1.1
2018-04-06T03:41:03.070Z,1.1
2018-04-06T03:42:04.676Z,1.0
2018-04-06T03:43:06.281Z,1.1
2018-04-06T03:44:07.879Z,1.1
2018-04-06T03:45:09.485Z,1.1
2018-04-06T03:46:11.087Z,1.1
2018-04-06T03:47:12.688Z,1.0
2018-04-06T03:48:14.296Z,1.0
2018-04-06T03:49:15.902Z,1.1
2018-04-06T03:50:17.502Z,1.0
2018-04-06T03:51:19.105Z,1.0
2018-04-06T03:52:20.712Z,1.1
2018-04-06T03:53:22.335Z,1.0
2018-04-06T03:54:23.933Z,1.1
2018-04-06T03:55:25.542Z,0.9
2018-04-06T03:56:27.147Z,0.9
2018-04-06T03:57:28.751Z,0.9
2018-04-06T03:58:30.353Z,0.9
2018-04-06T03:59:31.955Z,0.9
2018-04-06T04:00:33.564Z,0.8
2018-04-06T04:01:35.164Z,0.8
2018-04-06T04:02:36.771Z,1.0
2018-04-06T04:03:38.379Z,0.9
2018-04-06T04:04:39.977Z,0.9
2018-04-06T04:05:41.586Z,0.9
2018-04-06T04:06:43.188Z,0.9
2018-04-06T04:07:44.787Z,0.9
2018-04-06T04:08:46.396Z,0.9
2018-04-06T04:09:48.001Z,0.9
2018-04-06T04:10:49.602Z,0.8
2018-04-06T04:11:51.246Z,0.9
2018-04-06T04:12:52.813Z,0.9
2018-04-06T04:13:54.419Z,0.8
2018-04-06T04:14:56.025Z,0.9
2018-04-06T04:15:57.626Z,0.9
2018-04-06T04:16:59.235Z,0.9
2018-04-06T04:18:00.842Z,0.8
2018-04-06T04:19:02.447Z,0.8
2018-04-06T04:20:04.043Z,0.9
2018-04-06T04:21:05.652Z,0.9
2018-04-06T04:22:07.252Z,0.9
2018-04-06T04:23:08.852Z,1.0
2018-04-06T04:24:10.461Z,1.0
2018-04-06T04:25:12.060Z,0.9
2018-04-06T04:26:13.668Z,1.0
2018-04-06T04:27:15.278Z,0.9
2018-04-06T04:28:16.877Z,1.0
2018-04-06T04:29:18.480Z,0.9
2018-04-06T04:30:20.092Z,0.9
2018-04-06T04:31:21.689Z,0.9
2018-04-06T04:32:23.297Z,0.9
2018-04-06T04:33:24.900Z,0.9
2018-04-06T04:34:26.519Z,0.9
2018-04-06T04:35:28.107Z,0.8
2018-04-06T04:36:29.718Z,0.9
2018-04-06T04:37:31.328Z,0.9
2018-04-06T04:38:32.925Z,0.9
2018-04-06T04:39:34.536Z,0.8
2018-04-06T04:40:36.133Z,0.9
2018-04-06T04:41:37.740Z,1.0
2018-04-06T04:42:39.346Z,0.9
2018-04-06T04:43:40.952Z,0.9
2018-04-06T04:44:42.558Z,0.8
2018-04-06T04:45:44.160Z,0.8
2018-04-06T04:46:45.832Z,0.9
2018-04-06T04:47:47.374Z,0.9
2018-04-06T04:48:48.986Z,0.9
2018-04-06T04:49:50.590Z,0.8
2018-04-06T04:50:52.190Z,0.9
2018-04-06T04:51:53.801Z,0.7
2018-04-06T04:52:55.406Z,0.9
2018-04-06T04:53:57.013Z,0.7
2018-04-06T04:54:58.622Z,0.7
2018-04-06T04:56:00.222Z,0.8
2018-04-06T04:57:01.832Z,0.8
2018-04-06T04:58:03.440Z,0.8
2018-04-06T04:59:05.875Z,0.9
2018-04-06T05:00:07.484Z,0.9
2018-04-06T05:01:09.095Z,0.9
2018-04-06T05:02:10.704Z,0.8
2018-04-06T05:03:12.306Z,0.9
2018-04-06T05:04:13.913Z,0.8
2018-04-06T05:05:15.519Z,0.8
2018-04-06T05:06:17.124Z,0.8
2018-04-06T05:07:18.738Z,0.7
2018-04-06T05:08:20.339Z,0.7
2018-04-06T05:09:21.948Z,0.8
2018-04-06T05:10:23.559Z,0.9
2018-04-06T05:11:25.158Z,0.7
2018-04-06T05:12:26.769Z,0.9
2018-04-06T05:13:28.373Z,0.8
2018-04-06T05:14:29.981Z,0.8
2018-04-06T05:15:31.593Z,0.9
2018-04-06T05:16:33.198Z,0.9
2018-04-06T05:17:34.838Z,0.9
2018-04-06T05:18:36.410Z,0.8
2018-04-06T05:19:38.015Z,0.9
2018-04-06T05:20:39.625Z,0.8
2018-04-06T05:21:41.235Z,0.9
2018-04-06T05:22:42.841Z,0.9
2018-04-06T05:23:44.452Z,0.9
2018-04-06T05:24:46.061Z,1.0
2018-04-06T05:25:47.665Z,0.9
2018-04-06T05:26:49.281Z,0.9
2018-04-06T05:27:50.889Z,0.9
2018-04-06T05:28:52.493Z,0.9
2018-04-06T05:29:54.112Z,1.0
2018-04-06T05:30:55.713Z,0.9
2018-04-06T05:31:57.329Z,0.9
2018-04-06T05:32:58.935Z,1.1
2018-04-06T05:34:00.542Z,0.9
2018-04-06T05:35:02.155Z,1.0
2018-04-06T05:36:03.764Z,1.0
2018-04-06T05:37:05.374Z,1.0
2018-04-06T05:38:07.914Z,1.0
2018-04-06T05:39:09.524Z,1.0
2018-04-06T05:40:11.128Z,1.1
2018-04-06T05:41:12.736Z,0.9
2018-04-06T05:42:14.359Z,1.0
2018-04-06T05:43:15.963Z,1.1
2018-04-06T05:44:17.573Z,1.1
2018-04-06T05:45:19.187Z,1.2
2018-04-06T05:46:20.792Z,1.1
2018-04-06T05:47:22.400Z,1.2
2018-04-06T05:48:24.009Z,1.3
2018-04-06T05:49:25.628Z,1.5
2018-04-06T05:50:27.233Z,1.5
2018-04-06T05:51:28.849Z,1.4
2018-04-06T05:52:30.456Z,1.5
2018-04-06T05:53:32.062Z,1.4
2018-04-06T05:54:33.674Z,1.5
2018-04-06T05:55:35.281Z,1.5
2018-04-06T05:56:36.894Z,1.5
2018-04-06T05:57:38.507Z,1.6
2018-04-06T05:58:40.114Z,1.6
2018-04-06T05:59:41.720Z,1.6
2018-04-06T06:00:44.112Z,1.6
2018-04-06T06:01:45.718Z,1.7
2018-04-06T06:02:47.339Z,1.7
2018-04-06T06:03:48.952Z,1.7
2018-04-06T06:04:50.560Z,1.7
2018-04-06T06:05:52.177Z,1.7
2018-04-06T06:06:53.783Z,1.8
2018-04-06T06:07:55.389Z,1.8
2018-04-06T06:08:57.001Z,1.8
2018-04-06T06:09:58.695Z,1.7
2018-04-06T06:11:00.313Z,1.9
2018-04-06T06:12:01.921Z,1.8
2018-04-06T06:13:03.529Z,2.0
2018-04-06T06:14:05.138Z,2.8
2018-04-06T06:15:06.792Z,4.1
2018-04-06T06:16:08.917Z,5.5
2018-04-06T06:17:10.538Z,6.4
2018-04-06T06:18:12.147Z,6.9
2018-04-06T06:19:13.755Z,7.0
2018-04-06T06:20:15.372Z,8.0
2018-04-06T06:21:16.985Z,8.9
2018-04-06T06:22:18.593Z,9.5
2018-04-06T06:23:20.207Z,9.9
2018-04-06T06:24:21.816Z,10.7
2018-04-06T06:25:23.434Z,11.5
2018-04-06T06:26:25.053Z,11.5
2018-04-06T06:27:26.665Z,12.1
2018-04-06T06:28:28.295Z,12.3
2018-04-06T06:29:29.900Z,11.9
2018-04-06T06:30:31.518Z,12.6
2018-04-06T06:31:33.130Z,13.1
2018-04-06T06:32:34.750Z,13.7
2018-04-06T06:33:36.365Z,13.9
2018-04-06T06:34:37.983Z,14.4
2018-04-06T06:35:39.607Z,14.2
2018-04-06T06:36:41.219Z,14.4
2018-04-06T06:37:42.839Z,13.7
2018-04-06T06:38:44.460Z,13.8
2018-04-06T06:39:46.085Z,14.6
2018-04-06T06:40:47.708Z,14.4
2018-04-06T06:41:49.326Z,15.2
2018-04-06T06:42:50.957Z,15.7
2018-04-06T06:43:52.566Z,15.2
2018-04-06T06:44:54.183Z,15.8
2018-04-06T06:45:55.801Z,16.7
2018-04-06T06:46:57.421Z,16.9
2018-04-06T06:47:59.046Z,17.5
2018-04-06T06:49:00.666Z,18.2
2018-04-06T06:50:02.290Z,18.9
2018-04-06T06:51:03.915Z,18.7
2018-04-06T06:52:05.536Z,18.7
2018-04-06T06:53:07.161Z,19.4
2018-04-06T06:54:08.782Z,19.4
2018-04-06T06:55:10.403Z,19.7
2018-04-06T06:56:12.030Z,19.8
2018-04-06T06:57:13.649Z,20.2
2018-04-06T06:58:15.274Z,20.6
2018-04-06T06:59:17.606Z,20.7
2018-04-06T07:00:19.228Z,21.3
2018-04-06T07:01:20.851Z,21.4
2018-04-06T07:02:23.294Z,21.5
2018-04-06T07:03:24.920Z,20.6
2018-04-06T07:04:26.545Z,20.6
2018-04-06T07:05:28.171Z,21.0
2018-04-06T07:06:29.793Z,21.5
2018-04-06T07:07:31.420Z,21.3
2018-04-06T07:08:33.045Z,21.7
2018-04-06T07:09:34.670Z,21.5
2018-04-06T07:10:36.304Z,21.1
2018-04-06T07:11:37.929Z,21.1
2018-04-06T07:12:39.551Z,21.8
2018-04-06T07:13:41.182Z,22.4
2018-04-06T07:14:42.811Z,22.2
2018-04-06T07:15:44.441Z,23.1
2018-04-06T07:16:46.638Z,24.0
2018-04-06T07:17:48.271Z,23.3
2018-04-06T07:18:49.896Z,23.8
2018-04-06T07:19:51.528Z,23.4
2018-04-06T07:20:53.153Z,22.9
2018-04-06T07:21:54.777Z,23.3
2018-04-06T07:22:56.408Z,23.7
2018-04-06T07:23:58.037Z,23.7
2018-04-06T07:24:59.671Z,24.2
2018-04-06T07:26:01.300Z,24.9
2018-04-06T07:27:02.924Z,26.0
2018-04-06T07:28:04.549Z,26.5
2018-04-06T07:29:06.179Z,27.0
2018-04-06T07:30:07.814Z,27.6
2018-04-06T07:31:09.448Z,27.8
2018-04-06T07:32:11.912Z,26.2
2018-04-06T07:33:13.535Z,26.0
2018-04-06T07:34:15.171Z,26.2
2018-04-06T07:35:16.796Z,26.8
2018-04-06T07:36:18.433Z,27.2
2018-04-06T07:37:20.055Z,27.5
2018-04-06T07:38:21.689Z,27.9
2018-04-06T07:39:23.337Z,28.0
2018-04-06T07:40:24.959Z,28.3
2018-04-06T07:41:26.593Z,28.4
2018-04-06T07:42:28.217Z,27.5
2018-04-06T07:43:29.852Z,27.3
2018-04-06T07:44:31.485Z,27.5
2018-04-06T07:45:33.114Z,27.6
2018-04-06T07:46:34.745Z,27.4
2018-04-06T07:47:36.375Z,27.9
2018-04-06T07:48:38.012Z,27.8
2018-04-06T07:49:39.652Z,26.9
2018-04-06T07:50:41.306Z,27.0
2018-04-06T07:51:42.916Z,27.4
2018-04-06T07:52:44.541Z,27.6
2018-04-06T07:53:46.181Z,27.5
2018-04-06T07:54:47.807Z,27.4
2018-04-06T07:55:49.443Z,27.7
2018-04-06T07:56:51.076Z,27.2
2018-04-06T07:57:52.707Z,26.1
2018-04-06T07:58:54.341Z,25.9
2018-04-06T07:59:55.972Z,25.9
2018-04-06T08:00:57.609Z,26.0
2018-04-06T08:01:59.239Z,26.6
2018-04-06T08:03:00.869Z,27.3
2018-04-06T08:04:03.163Z,25.8
2018-04-06T08:05:04.804Z,26.2
2018-04-06T08:06:06.437Z,25.1
2018-04-06T08:07:08.070Z,26.1
2018-04-06T08:08:09.710Z,26.2
2018-04-06T08:09:11.337Z,26.4
2018-04-06T08:10:12.972Z,26.7
2018-04-06T08:11:14.608Z,27.3
2018-04-06T08:12:16.279Z,27.6
2018-04-06T08:13:17.913Z,27.2
2018-04-06T08:14:19.545Z,27.0
2018-04-06T08:15:21.180Z,27.3
2018-04-06T08:16:22.816Z,26.4
2018-04-06T08:17:24.448Z,26.8
2018-04-06T08:18:26.084Z,26.7
2018-04-06T08:19:27.717Z,26.4
2018-04-06T08:20:29.350Z,26.2
2018-04-06T08:21:30.983Z,27.0
2018-04-06T08:22:32.617Z,26.8
2018-04-06T08:23:34.245Z,27.6
2018-04-06T08:24:35.883Z,28.1
2018-04-06T08:25:37.517Z,28.5
2018-04-06T08:26:39.153Z,27.9
2018-04-06T08:27:40.785Z,27.3
2018-04-06T08:28:43.330Z,27.4
2018-04-06T08:29:44.017Z,28.1
2018-04-06T08:30:45.654Z,28.6
2018-04-06T08:31:47.288Z,28.0
2018-04-06T08:32:48.919Z,27.9
2018-04-06T08:33:50.557Z,27.4
2018-04-06T08:34:52.236Z,27.1
2018-04-06T08:35:53.828Z,27.1
2018-04-06T08:36:55.466Z,27.1
2018-04-06T08:37:57.096Z,27.6
2018-04-06T08:38:58.738Z,27.6
2018-04-06T08:40:00.373Z,26.8
2018-04-06T08:41:02.006Z,27.4
2018-04-06T08:42:03.644Z,27.3
2018-04-06T08:43:05.278Z,27.8
2018-04-06T08:44:06.922Z,26.8
2018-04-06T08:45:08.555Z,26.6
2018-04-06T08:46:10.183Z,26.2
2018-04-06T08:47:11.820Z,26.4
2018-04-06T08:48:13.456Z,26.9
2018-04-06T08:49:15.095Z,26.9
2018-04-06T08:50:16.727Z,27.2
2018-04-06T08:51:18.372Z,27.6
2018-04-06T08:52:20.006Z,27.7
2018-04-06T08:53:21.640Z,27.8
2018-04-06T08:54:23.278Z,27.0
2018-04-06T08:55:24.914Z,26.9
2018-04-06T08:56:26.547Z,26.2
2018-04-06T08:57:28.187Z,26.0
2018-04-06T08:58:29.827Z,26.1
2018-04-06T08:59:31.458Z,24.6
2018-04-06T09:00:33.090Z,25.2
2018-04-06T09:01:34.726Z,25.5
2018-04-06T09:02:36.363Z,24.7
2018-04-06T09:03:38.000Z,24.6
2018-04-06T09:04:39.639Z,24.8
2018-04-06T09:05:41.302Z,25.2
2018-04-06T09:06:42.908Z,25.4
2018-04-06T09:07:44.539Z,26.2
2018-04-06T09:08:46.225Z,26.4
2018-04-06T09:09:47.808Z,26.4
2018-04-06T09:10:49.444Z,25.8
2018-04-06T09:11:51.096Z,25.2
2018-04-06T09:12:52.716Z,25.5
2018-04-06T09:13:54.355Z,26.4
2018-04-06T09:14:55.987Z,26.3
2018-04-06T09:15:57.627Z,27.1
2018-04-06T09:16:59.257Z,27.2
2018-04-06T09:18:00.897Z,27.0
2018-04-06T09:19:02.535Z,27.1
2018-04-06T09:20:04.167Z,27.0
2018-04-06T09:21:05.805Z,27.4
2018-04-06T09:22:07.441Z,27.8
2018-04-06T09:23:09.068Z,26.8
2018-04-06T09:24:10.718Z,27.0
2018-04-06T09:25:12.355Z,27.2
2018-04-06T09:26:13.987Z,27.0
2018-04-06T09:27:15.683Z,27.2
2018-04-06T09:28:17.262Z,27.4
2018-04-06T09:29:18.895Z,27.5
2018-04-06T09:30:20.537Z,27.5
2018-04-06T09:31:22.177Z,27.4
2018-04-06T09:32:23.807Z,27.4
2018-04-06T09:33:25.452Z,27.6
2018-04-06T09:34:27.100Z,27.5
2018-04-06T09:35:28.723Z,26.5
2018-04-06T09:36:30.359Z,27.0
2018-04-06T09:37:31.989Z,27.1
2018-04-06T09:38:33.626Z,27.0
2018-04-06T09:39:35.268Z,27.1
2018-04-06T09:40:36.903Z,27.3
2018-04-06T09:41:38.566Z,27.2
2018-04-06T09:42:40.183Z,27.2
2018-04-06T09:43:41.811Z,27.4
2018-04-06T09:44:43.451Z,27.2
2018-04-06T09:45:45.085Z,26.3
2018-04-06T09:46:46.720Z,26.9
2018-04-06T09:47:48.357Z,26.5
2018-04-06T09:48:49.993Z,25.9
2018-04-06T09:49:51.625Z,25.6
2018-04-06T09:50:53.259Z,25.8
2018-04-06T09:51:54.893Z,25.5
2018-04-06T09:52:56.528Z,25.7
2018-04-06T09:53:58.164Z,26.1
2018-04-06T09:54:59.801Z,25.7
2018-04-06T09:56:01.435Z,26.3
2018-04-06T09:57:03.067Z,26.0
2018-04-06T09:58:04.706Z,25.3
2018-04-06T09:59:06.343Z,25.2
2018-04-06T10:00:07.973Z,25.1
2018-04-06T10:01:09.610Z,25.5
2018-04-06T10:02:11.245Z,25.2
2018-04-06T10:03:12.881Z,25.3
2018-04-06T10:04:14.523Z,25.9
2018-04-06T10:05:16.157Z,26.6
2018-04-06T10:06:17.792Z,26.7
2018-04-06T10:07:19.427Z,26.1
2018-04-06T10:08:21.063Z,26.6
2018-04-06T10:09:22.703Z,27.0
2018-04-06T10:10:24.333Z,27.3
2018-04-06T10:11:25.967Z,27.5
2018-04-06T10:12:27.602Z,27.6
2018-04-06T10:13:29.237Z,27.7
2018-04-06T10:14:30.874Z,27.6
2018-04-06T10:15:32.509Z,27.5
2018-04-06T10:16:34.150Z,27.1
2018-04-06T10:17:35.778Z,27.1
2018-04-06T10:18:37.414Z,27.1
2018-04-06T10:19:39.048Z,27.2
2018-04-06T10:20:40.679Z,27.0
2018-04-06T10:21:42.320Z,26.8
2018-04-06T10:22:44.629Z,27.4
2018-04-06T10:23:46.267Z,26.0
2018-04-06T10:24:47.904Z,25.5
2018-04-06T10:25:49.538Z,26.1
2018-04-06T10:26:51.175Z,26.7
2018-04-06T10:27:52.806Z,27.0
2018-04-06T10:28:54.444Z,27.5
2018-04-06T10:29:56.081Z,26.6
2018-04-06T10:30:57.725Z,26.8
2018-04-06T10:31:59.356Z,27.0
2018-04-06T10:33:00.992Z,27.1
2018-04-06T10:34:02.628Z,27.3
2018-04-06T10:35:04.264Z,27.3
2018-04-06T10:36:05.898Z,27.5
2018-04-06T10:37:07.537Z,26.6
2018-04-06T10:38:09.174Z,25.9
2018-04-06T10:39:10.812Z,26.1
2018-04-06T10:40:12.447Z,26.3
2018-04-06T10:41:14.084Z,25.4
2018-04-06T10:42:15.722Z,25.5
2018-04-06T10:43:17.358Z,25.7
2018-04-06T10:44:18.993Z,24.8
2018-04-06T10:45:20.631Z,24.5
2018-04-06T10:46:22.267Z,24.6
2018-04-06T10:47:23.903Z,25.2
2018-04-06T10:48:25.537Z,25.7
2018-04-06T10:49:27.172Z,25.7
2018-04-06T10:50:28.811Z,25.2
2018-04-06T10:51:30.445Z,25.7
2018-04-06T10:52:32.080Z,25.6
2018-04-06T10:53:33.718Z,26.2
2018-04-06T10:54:35.400Z,26.0
2018-04-06T10:55:37.035Z,25.6
2018-04-06T10:56:38.674Z,26.1
2018-04-06T10:57:40.312Z,26.6
2018-04-06T10:58:41.946Z,26.8
2018-04-06T10:59:43.588Z,27.2
2018-04-06T11:00:45.223Z,26.4
2018-04-06T11:01:46.858Z,25.8
2018-04-06T11:02:48.493Z,26.5
2018-04-06T11:03:50.130Z,27.0
2018-04-06T11:04:51.767Z,27.5
2018-04-06T11:05:53.403Z,26.1
2018-04-06T11:06:55.040Z,26.3
2018-04-06T11:07:56.684Z,26.1
2018-04-06T11:08:58.319Z,25.7
2018-04-06T11:09:59.953Z,25.1
2018-04-06T11:11:01.593Z,24.2
2018-04-06T11:12:03.229Z,24.7
2018-04-06T11:13:04.866Z,24.3
2018-04-06T11:14:06.504Z,24.5
2018-04-06T11:15:08.144Z,23.4
2018-04-06T11:16:09.776Z,24.0
2018-04-06T11:17:11.412Z,24.7
2018-04-06T11:18:13.050Z,25.0
2018-04-06T11:19:14.692Z,25.5
2018-04-06T11:20:16.324Z,26.3
2018-04-06T11:21:17.963Z,26.4
2018-04-06T11:22:19.600Z,26.7
2018-04-06T11:23:21.232Z,26.3
2018-04-06T11:24:22.867Z,25.8
2018-04-06T11:25:24.501Z,26.0
2018-04-06T11:26:26.136Z,25.6
2018-04-06T11:27:27.772Z,25.9
2018-04-06T11:28:29.410Z,25.7
2018-04-06T11:29:31.045Z,25.3
2018-04-06T11:30:33.658Z,23.9
2018-04-06T11:31:35.292Z,23.9
2018-04-06T11:32:36.926Z,23.0
2018-04-06T11:33:38.561Z,23.0
2018-04-06T11:34:40.194Z,23.4
2018-04-06T11:35:41.831Z,23.7
2018-04-06T11:36:43.470Z,23.2
2018-04-06T11:37:45.098Z,23.1
2018-04-06T11:38:46.731Z,24.1
2018-04-06T11:39:48.368Z,24.3
2018-04-06T11:40:50.010Z,24.2
2018-04-06T11:41:51.639Z,25.0
2018-04-06T11:42:53.272Z,25.4
2018-04-06T11:43:54.918Z,25.3
2018-04-06T11:44:56.545Z,25.5
2018-04-06T11:45:58.179Z,25.0
2018-04-06T11:46:59.817Z,25.2
2018-04-06T11:48:01.451Z,25.8
2018-04-06T11:49:03.088Z,25.9
2018-04-06T11:50:04.729Z,25.8
2018-04-06T11:51:06.362Z,26.1
2018-04-06T11:52:07.997Z,25.3
2018-04-06T11:53:09.629Z,25.7
2018-04-06T11:54:11.280Z,25.7
2018-04-06T11:55:12.902Z,26.2
2018-04-06T11:56:14.537Z,26.5
2018-04-06T11:57:16.179Z,27.2
2018-04-06T11:58:17.814Z,26.8
2018-04-06T11:59:19.448Z,27.3
2018-04-06T12:00:21.083Z,27.3
2018-04-06T12:01:22.717Z,27.5
2018-04-06T12:02:24.353Z,27.3
2018-04-06T12:03:25.995Z,27.2
2018-04-06T12:04:27.632Z,27.6
2018-04-06T12:05:29.265Z,26.4
2018-04-06T12:06:30.900Z,26.3
2018-04-06T12:07:32.534Z,26.5
2018-04-06T12:08:34.709Z,26.9
2018-04-06T12:09:36.349Z,25.8
2018-04-06T12:10:37.986Z,25.5
2018-04-06T12:11:39.623Z,26.3
2018-04-06T12:12:41.258Z,26.1
2018-04-06T12:13:42.891Z,25.7
2018-04-06T12:14:44.527Z,25.3
2018-04-06T12:15:46.162Z,25.5
2018-04-06T12:16:47.804Z,25.9
2018-04-06T12:17:49.435Z,26.1
2018-04-06T12:18:51.071Z,26.2
2018-04-06T12:19:52.706Z,26.7
2018-04-06T12:20:54.342Z,27.1
2018-04-06T12:21:55.977Z,27.3
2018-04-06T12:22:57.612Z,26.9
2018-04-06T12:23:59.247Z,27.2
2018-04-06T12:25:00.882Z,27.5
2018-04-06T12:26:02.522Z,28.0
2018-04-06T12:27:04.156Z,27.6
2018-04-06T12:28:05.789Z,27.1
2018-04-06T12:29:07.422Z,26.5
2018-04-06T12:30:09.058Z,26.4
2018-04-06T12:31:10.692Z,26.7
2018-04-06T12:32:12.324Z,26.8
2018-04-06T12:33:13.961Z,27.3
2018-04-06T12:34:15.596Z,26.9
2018-04-06T12:35:17.231Z,27.0
2018-04-06T12:36:18.866Z,27.5
2018-04-06T12:37:21.447Z,27.7
2018-04-06T12:38:22.087Z,27.4
2018-04-06T12:39:23.724Z,27.7
2018-04-06T12:40:26.273Z,28.2
2018-04-06T12:41:27.912Z,28.7
2018-04-06T12:42:29.544Z,28.6
2018-04-06T12:43:31.175Z,28.5
2018-04-06T12:44:32.810Z,28.6
2018-04-06T12:45:34.444Z,28.6
2018-04-06T12:46:36.080Z,27.2
2018-04-06T12:47:37.721Z,27.3
2018-04-06T12:48:39.358Z,27.6
2018-04-06T12:49:40.987Z,27.0
2018-04-06T12:50:42.691Z,26.3
2018-04-06T12:51:44.329Z,26.1
2018-04-06T12:52:45.961Z,26.8
2018-04-06T12:53:47.611Z,26.1
2018-04-06T12:54:49.246Z,25.8
2018-04-06T12:55:50.940Z,24.9
2018-04-06T12:56:52.515Z,25.3
2018-04-06T12:57:54.144Z,25.8
2018-04-06T12:58:55.778Z,25.7
2018-04-06T12:59:57.414Z,26.1
2018-04-06T13:00:59.047Z,26.8
2018-04-06T13:02:00.713Z,26.9
2018-04-06T13:03:02.382Z,27.1
2018-04-06T13:04:03.981Z,26.3
2018-04-06T13:05:05.612Z,25.9
2018-04-06T13:06:07.246Z,25.7
2018-04-06T13:07:08.879Z,26.2
2018-04-06T13:08:10.511Z,26.4
2018-04-06T13:09:12.147Z,26.7
2018-04-06T13:10:13.781Z,27.3
2018-04-06T13:11:15.411Z,27.7
2018-04-06T13:12:17.049Z,27.4
2018-04-06T13:13:18.676Z,26.3
2018-04-06T13:14:20.310Z,25.9
2018-04-06T13:15:21.942Z,26.3
2018-04-06T13:16:23.576Z,25.8
2018-04-06T13:17:25.210Z,25.8
2018-04-06T13:18:26.842Z,25.7
2018-04-06T13:19:28.472Z,25.9
2018-04-06T13:20:30.105Z,26.4
2018-04-06T13:21:31.738Z,26.4
2018-04-06T13:22:33.369Z,26.3
2018-04-06T13:23:35.003Z,26.8
2018-04-06T13:24:37.184Z,27.0
2018-04-06T13:25:38.813Z,27.2
2018-04-06T13:26:40.444Z,26.5
2018-04-06T13:27:42.076Z,25.7
2018-04-06T13:28:43.707Z,26.1
2018-04-06T13:29:45.339Z,26.4
2018-04-06T13:30:46.975Z,26.8
2018-04-06T13:31:48.608Z,27.1
2018-04-06T13:32:50.237Z,26.9
2018-04-06T13:33:51.868Z,26.8
2018-04-06T13:34:53.497Z,26.9
2018-04-06T13:35:55.129Z,27.1
2018-04-06T13:36:56.763Z,25.5
2018-04-06T13:37:58.396Z,25.2
2018-04-06T13:39:00.033Z,25.5
2018-04-06T13:40:01.658Z,25.7
2018-04-06T13:41:03.286Z,26.1
2018-04-06T13:42:04.916Z,25.7
2018-04-06T13:43:06.556Z,25.9
2018-04-06T13:44:08.860Z,26.5
2018-04-06T13:45:10.492Z,26.6
2018-04-06T13:46:12.123Z,27.0
2018-04-06T13:47:13.755Z,26.8
2018-04-06T13:48:15.383Z,26.1
2018-04-06T13:49:17.011Z,25.6
2018-04-06T13:50:18.644Z,24.3
2018-04-06T13:51:20.274Z,23.3
2018-04-06T13:52:21.905Z,23.5